Time;durP1;ratioP1;P1;durP2;ratioP2;P2;SDS_P1;SDS_P2;PMS_P1;PMS_P2;Temp;Humidity;BMP_temperature;BMP_pressure;BME280_temperature;BME280_humidity;BME280_pressure;Samples;Min_cycle;Max_cycle;Signal;HPM_P1;HPM_P2
2023/06/11 00:01:42;;;;;;;6.97;3.25;;;;;;;;;;5068687;28;20102;-65
2023/06/11 00:04:13;;;;;;;6.57;2.97;;;;;;;;;;5070897;28;20202;-65
2023/06/11 00:06:41;;;;;;;3.38;2.28;;;;;;;;;;5070372;28;20428;-65
2023/06/11 00:09:11;;;;;;;5.15;3.05;;;;;;;;;;5070681;28;20505;-66
2023/06/11 00:11:41;;;;;;;4.10;2.55;;;;;;;;;;5057252;28;20163;-65
2023/06/11 00:14:10;;;;;;;6.03;2.85;;;;;;;;;;5070578;28;20113;-66
2023/06/11 00:16:40;;;;;;;7.85;3.05;;;;;;;;;;5070667;28;20145;-64
2023/06/11 00:19:09;;;;;;;4.70;2.85;;;;;;;;;;5070623;28;20098;-65
2023/06/11 00:21:40;;;;;;;5.28;2.95;;;;;;;;;;5059936;28;20087;-65
2023/06/11 00:24:09;;;;;;;5.75;3.22;;;;;;;;;;5070437;28;20098;-65
2023/06/11 00:26:40;;;;;;;5.47;3.05;;;;;;;;;;5070306;28;20048;-65
2023/06/11 00:29:08;;;;;;;4.32;2.47;;;;;;;;;;5070712;28;20080;-65
2023/06/11 00:31:37;;;;;;;6.40;3.03;;;;;;;;;;5061633;28;20044;-65
2023/06/11 00:34:05;;;;;;;5.53;2.80;;;;;;;;;;5067711;28;20048;-65
2023/06/11 00:36:35;;;;;;;4.35;2.75;;;;;;;;;;5060689;28;20206;-65
2023/06/11 00:39:05;;;;;;;5.18;2.47;;;;;;;;;;5070376;28;20106;-65
2023/06/11 00:41:34;;;;;;;4.15;2.42;;;;;;;;;;5070196;28;20558;-65
2023/06/11 00:44:06;;;;;;;4.18;2.45;;;;;;;;;;5070096;28;20047;-64
2023/06/11 00:46:37;;;;;;;4.60;2.65;;;;;;;;;;5069757;28;20048;-65
2023/06/11 00:49:06;;;;;;;3.47;2.30;;;;;;;;;;5057142;28;20052;-65
2023/06/11 00:51:35;;;;;;;5.13;2.70;;;;;;;;;;5066335;28;20087;-64
2023/06/11 00:54:03;;;;;;;6.07;2.47;;;;;;;;;;5070143;28;20452;-64
2023/06/11 00:56:33;;;;;;;4.90;2.40;;;;;;;;;;5069440;28;20044;-65
2023/06/11 00:59:01;;;;;;;6.10;3.30;;;;;;;;;;5070361;28;20547;-65
2023/06/11 01:01:35;;;;;;;5.75;3.30;;;;;;;;;;5068142;28;20099;-64
2023/06/11 01:04:07;;;;;;;4.00;2.65;;;;;;;;;;5104627;22;20060;-63
2023/06/11 01:06:36;;;;;;;4.32;2.58;;;;;;;;;;5094058;28;20147;-63
2023/06/11 01:09:05;;;;;;;6.28;3.35;;;;;;;;;;5093277;28;20078;-64
2023/06/11 01:11:34;;;;;;;6.35;3.00;;;;;;;;;;5093778;28;20048;-63
2023/06/11 01:14:04;;;;;;;3.70;2.50;;;;;;;;;;5092987;28;20052;-62
2023/06/11 01:16:36;;;;;;;4.72;2.50;;;;;;;;;;5092934;28;20481;-62
2023/06/11 01:19:11;;;;;;;4.28;2.83;;;;;;;;;;5093757;28;20051;-65
2023/06/11 01:21:43;;;;;;;4.68;2.70;;;;;;;;;;5092883;28;20052;-63
2023/06/11 01:24:21;;;;;;;5.25;3.00;;;;;;;;;;5092929;28;20044;-63
2023/06/11 01:26:55;;;;;;;6.60;3.20;;;;;;;;;;5092820;28;20044;-64
2023/06/11 01:29:26;;;;;;;4.75;2.72;;;;;;;;;;5092900;28;20488;-62
2023/06/11 01:31:55;;;;;;;4.75;2.55;;;;;;;;;;5092928;28;20083;-65
2023/06/11 01:34:25;;;;;;;4.82;2.70;;;;;;;;;;5085683;28;20128;-62
2023/06/11 01:36:54;;;;;;;4.38;2.58;;;;;;;;;;5083208;28;20060;-63
2023/06/11 01:39:22;;;;;;;5.53;2.75;;;;;;;;;;5090737;28;20048;-62
2023/06/11 01:41:51;;;;;;;4.85;2.78;;;;;;;;;;5089643;28;20075;-65
2023/06/11 01:44:20;;;;;;;5.32;2.85;;;;;;;;;;5090226;28;20093;-64
2023/06/11 01:46:50;;;;;;;3.72;2.42;;;;;;;;;;5089552;28;20067;-65
2023/06/11 01:49:18;;;;;;;3.45;2.72;;;;;;;;;;5090676;28;20134;-63
2023/06/11 01:51:47;;;;;;;5.05;2.97;;;;;;;;;;5090325;28;20105;-62
2023/06/11 01:54:15;;;;;;;4.25;2.83;;;;;;;;;;5090798;28;20078;-62
2023/06/11 01:56:44;;;;;;;4.53;2.47;;;;;;;;;;5090809;28;20043;-64
2023/06/11 01:59:13;;;;;;;5.82;2.90;;;;;;;;;;5093639;28;20059;-64
2023/06/11 02:01:41;;;;;;;6.50;2.95;;;;;;;;;;5093322;28;20097;-62
2023/06/11 02:04:11;;;;;;;5.18;3.10;;;;;;;;;;5093602;28;20052;-63
2023/06/11 02:06:40;;;;;;;3.58;2.22;;;;;;;;;;5093195;28;20044;-63
2023/06/11 02:09:08;;;;;;;5.00;3.08;;;;;;;;;;5093539;28;20408;-63
2023/06/11 02:11:36;;;;;;;5.13;3.22;;;;;;;;;;5093075;28;20079;-62
2023/06/11 02:14:05;;;;;;;6.95;3.60;;;;;;;;;;5093331;28;20462;-62
2023/06/11 02:16:33;;;;;;;5.95;3.13;;;;;;;;;;5093252;28;20051;-64
2023/06/11 02:19:02;;;;;;;5.30;3.05;;;;;;;;;;5093642;28;20052;-63
2023/06/11 02:21:31;;;;;;;7.80;2.97;;;;;;;;;;5093103;28;20072;-62
2023/06/11 02:24:00;;;;;;;4.82;2.60;;;;;;;;;;5093112;28;20055;-64
2023/06/11 02:26:28;;;;;;;6.97;3.30;;;;;;;;;;5092747;28;20101;-62
2023/06/11 02:28:57;;;;;;;5.78;2.92;;;;;;;;;;5093192;28;20041;-62
2023/06/11 02:31:25;;;;;;;5.25;3.03;;;;;;;;;;5093225;28;20550;-62
2023/06/11 02:33:54;;;;;;;4.53;2.47;;;;;;;;;;5092955;28;20155;-63
2023/06/11 02:36:23;;;;;;;6.13;3.10;;;;;;;;;;5092126;28;20044;-64
2023/06/11 02:38:52;;;;;;;5.47;2.92;;;;;;;;;;5093064;28;20052;-63
2023/06/11 02:41:21;;;;;;;5.55;2.97;;;;;;;;;;5093250;28;20048;-62
2023/06/11 02:43:49;;;;;;;6.78;2.90;;;;;;;;;;5092961;28;20134;-65
2023/06/11 02:46:17;;;;;;;6.38;3.25;;;;;;;;;;5092211;28;20130;-63
2023/06/11 02:48:46;;;;;;;5.75;3.08;;;;;;;;;;5092472;28;20051;-64
2023/06/11 02:51:14;;;;;;;5.07;3.08;;;;;;;;;;5092629;28;20090;-63
2023/06/11 02:53:44;;;;;;;5.90;3.20;;;;;;;;;;5092904;28;20117;-64
2023/06/11 02:56:13;;;;;;;5.20;2.90;;;;;;;;;;5092382;28;20044;-63
2023/06/11 02:58:42;;;;;;;5.97;3.35;;;;;;;;;;5092114;28;20078;-63
2023/06/11 03:01:10;;;;;;;5.13;3.13;;;;;;;;;;5092217;28;20105;-64
2023/06/11 03:03:38;;;;;;;6.82;3.33;;;;;;;;;;5064107;28;20055;-65
2023/06/11 03:06:07;;;;;;;6.15;3.13;;;;;;;;;;5071916;28;20052;-62
2023/06/11 03:08:35;;;;;;;5.10;3.30;;;;;;;;;;5072168;28;20141;-63
2023/06/11 03:11:03;;;;;;;5.90;3.03;;;;;;;;;;5072003;28;20040;-63
2023/06/11 03:13:33;;;;;;;5.28;3.15;;;;;;;;;;5071945;28;20041;-63
2023/06/11 03:16:01;;;;;;;5.45;3.03;;;;;;;;;;5071186;28;20509;-65
2023/06/11 03:18:30;;;;;;;6.32;3.63;;;;;;;;;;5070544;28;20052;-63
2023/06/11 03:20:58;;;;;;;4.95;3.05;;;;;;;;;;5071707;28;20540;-62
2023/06/11 03:23:27;;;;;;;5.00;3.28;;;;;;;;;;5072095;28;20071;-65
2023/06/11 03:25:55;;;;;;;6.95;3.65;;;;;;;;;;5071117;28;20072;-64
2023/06/11 03:28:23;;;;;;;7.45;3.70;;;;;;;;;;5071826;28;20053;-64
2023/06/11 03:30:53;;;;;;;6.72;3.45;;;;;;;;;;5071591;28;20136;-63
2023/06/11 03:33:21;;;;;;;7.90;3.58;;;;;;;;;;5071465;28;20044;-62
2023/06/11 03:35:50;;;;;;;6.75;3.40;;;;;;;;;;5071154;28;20105;-62
2023/06/11 03:38:18;;;;;;;6.15;3.60;;;;;;;;;;5068909;28;20041;-62
2023/06/11 03:40:46;;;;;;;8.75;3.50;;;;;;;;;;5071170;28;20089;-63
2023/06/11 03:43:15;;;;;;;5.95;3.33;;;;;;;;;;5071326;28;20098;-62
2023/06/11 03:45:43;;;;;;;5.60;2.97;;;;;;;;;;5071142;28;20079;-62
2023/06/11 03:48:13;;;;;;;6.13;3.40;;;;;;;;;;5071592;28;20087;-63
2023/06/11 03:50:41;;;;;;;5.65;3.17;;;;;;;;;;5071116;28;20432;-64
2023/06/11 03:53:09;;;;;;;6.03;3.35;;;;;;;;;;5070595;28;20080;-65
2023/06/11 03:55:38;;;;;;;5.10;3.10;;;;;;;;;;5070985;28;20049;-62
2023/06/11 03:58:06;;;;;;;5.78;3.45;;;;;;;;;;5071208;28;20088;-62
2023/06/11 04:00:34;;;;;;;5.57;2.92;;;;;;;;;;5071060;28;20052;-63
2023/06/11 04:03:03;;;;;;;5.80;3.30;;;;;;;;;;5072622;28;20105;-62
2023/06/11 04:05:37;;;;;;;5.85;3.40;;;;;;;;;;5070396;28;20481;-62
2023/06/11 04:08:05;;;;;;;5.27;3.00;;;;;;;;;;5071265;28;20515;-62
2023/06/11 04:10:34;;;;;;;11.00;3.25;;;;;;;;;;5071314;28;20052;-64
2023/06/11 04:13:02;;;;;;;6.60;4.18;;;;;;;;;;5070642;28;20524;-62
2023/06/11 04:15:31;;;;;;;5.45;3.03;;;;;;;;;;5069978;28;20044;-63
2023/06/11 04:17:59;;;;;;;5.82;3.35;;;;;;;;;;5070840;28;20048;-63
2023/06/11 04:20:28;;;;;;;6.93;3.30;;;;;;;;;;5070164;28;20469;-62
2023/06/11 04:22:58;;;;;;;8.00;3.55;;;;;;;;;;5070466;28;20110;-62
2023/06/11 04:25:26;;;;;;;6.40;3.03;;;;;;;;;;5070378;28;20068;-63
2023/06/11 04:27:57;;;;;;;6.40;3.00;;;;;;;;;;5070545;28;20080;-62
2023/06/11 04:30:26;;;;;;;6.07;3.45;;;;;;;;;;5070139;28;20083;-62
2023/06/11 04:32:56;;;;;;;4.65;3.03;;;;;;;;;;5070295;28;20053;-66
2023/06/11 04:35:24;;;;;;;7.72;4.07;;;;;;;;;;5069799;28;20048;-64
2023/06/11 04:37:53;;;;;;;6.53;3.47;;;;;;;;;;5070543;28;20113;-62
2023/06/11 04:40:25;;;;;;;4.30;3.30;;;;;;;;;;5069580;28;20048;-63
2023/06/11 04:42:53;;;;;;;7.20;3.35;;;;;;;;;;5070367;28;20564;-63
2023/06/11 04:45:22;;;;;;;6.50;3.42;;;;;;;;;;5069861;28;20140;-62
2023/06/11 04:47:51;;;;;;;8.40;3.83;;;;;;;;;;5070782;28;20090;-62
2023/06/11 04:50:21;;;;;;;6.45;3.75;;;;;;;;;;5070436;28;20071;-63
2023/06/11 04:52:51;;;;;;;6.18;3.97;;;;;;;;;;5070426;28;20079;-62
2023/06/11 04:55:24;;;;;;;5.90;3.78;;;;;;;;;;5069947;28;20080;-63
2023/06/11 04:57:55;;;;;;;7.03;3.78;;;;;;;;;;5070003;28;20052;-63
2023/06/11 05:00:23;;;;;;;7.43;4.00;;;;;;;;;;5070506;28;20102;-62
2023/06/11 05:02:52;;;;;;;6.90;3.90;;;;;;;;;;5069947;28;20064;-62
2023/06/11 05:05:20;;;;;;;8.68;4.45;;;;;;;;;;5069710;28;20481;-62
2023/06/11 05:07:49;;;;;;;14.32;4.43;;;;;;;;;;5069980;28;20086;-62
2023/06/11 05:10:18;;;;;;;7.43;4.30;;;;;;;;;;5069957;28;20560;-63
2023/06/11 05:12:46;;;;;;;11.30;4.80;;;;;;;;;;5070004;28;20059;-63
2023/06/11 05:15:16;;;;;;;7.25;4.05;;;;;;;;;;5063886;28;20052;-63
2023/06/11 05:17:45;;;;;;;5.72;3.42;;;;;;;;;;5069743;28;20102;-65
2023/06/11 05:20:14;;;;;;;8.05;4.35;;;;;;;;;;5069721;28;20150;-63
2023/06/11 05:22:42;;;;;;;10.52;4.68;;;;;;;;;;5069604;28;20390;-62
2023/06/11 05:25:15;;;;;;;9.20;4.60;;;;;;;;;;5069940;28;20048;-62
2023/06/11 05:27:43;;;;;;;7.95;4.53;;;;;;;;;;5070054;28;20079;-63
2023/06/11 05:30:11;;;;;;;10.70;4.50;;;;;;;;;;5069411;28;20078;-62
2023/06/11 05:32:43;;;;;;;7.72;4.43;;;;;;;;;;5073242;28;20109;-65
2023/06/11 05:35:12;;;;;;;7.75;4.20;;;;;;;;;;5073522;28;20102;-63
2023/06/11 05:37:40;;;;;;;6.07;3.58;;;;;;;;;;5074052;28;20057;-63
2023/06/11 05:40:11;;;;;;;7.32;4.75;;;;;;;;;;5073935;28;20588;-65
2023/06/11 05:42:39;;;;;;;7.20;4.30;;;;;;;;;;5060864;28;20159;-66
2023/06/11 05:45:08;;;;;;;6.32;3.70;;;;;;;;;;5069789;28;20098;-63
2023/06/11 05:47:37;;;;;;;7.47;3.55;;;;;;;;;;5074042;28;20052;-64
2023/06/11 05:50:07;;;;;;;8.43;4.30;;;;;;;;;;5073643;28;20053;-63
2023/06/11 05:52:36;;;;;;;7.95;3.95;;;;;;;;;;5073394;28;20139;-63
2023/06/11 05:55:04;;;;;;;7.00;3.78;;;;;;;;;;5073047;28;20417;-62
2023/06/11 05:57:33;;;;;;;6.10;3.50;;;;;;;;;;5073276;28;20044;-64
2023/06/11 06:00:01;;;;;;;6.68;3.47;;;;;;;;;;5073485;28;20546;-62
2023/06/11 06:02:30;;;;;;;7.10;4.18;;;;;;;;;;5073176;28;20064;-62
2023/06/11 06:04:59;;;;;;;6.53;4.03;;;;;;;;;;5072858;28;20122;-63
2023/06/11 06:07:29;;;;;;;5.82;3.42;;;;;;;;;;5072951;28;20080;-62
2023/06/11 06:09:57;;;;;;;6.72;3.83;;;;;;;;;;5073029;28;20432;-63
2023/06/11 06:12:26;;;;;;;7.97;4.10;;;;;;;;;;5073302;28;20048;-63
2023/06/11 06:14:54;;;;;;;7.03;3.65;;;;;;;;;;5072712;28;20475;-64
2023/06/11 06:17:23;;;;;;;5.18;3.13;;;;;;;;;;5073119;28;20054;-62
2023/06/11 06:19:51;;;;;;;5.57;3.53;;;;;;;;;;5072526;28;20071;-64
2023/06/11 06:22:20;;;;;;;5.35;3.20;;;;;;;;;;5073062;28;20076;-66
2023/06/11 06:24:49;;;;;;;5.03;3.60;;;;;;;;;;5059663;28;20541;-62
2023/06/11 06:27:18;;;;;;;6.82;3.22;;;;;;;;;;5072724;28;20365;-63
2023/06/11 06:29:46;;;;;;;7.57;4.20;;;;;;;;;;5073384;28;20048;-63
2023/06/11 06:32:14;;;;;;;6.30;3.72;;;;;;;;;;5072504;28;20048;-63
2023/06/11 06:34:43;;;;;;;6.05;3.30;;;;;;;;;;5071873;28;20048;-63
2023/06/11 06:37:11;;;;;;;8.57;3.53;;;;;;;;;;5072720;28;20048;-63
2023/06/11 06:39:40;;;;;;;4.95;3.25;;;;;;;;;;5072806;28;20509;-63
2023/06/11 06:42:10;;;;;;;4.47;3.03;;;;;;;;;;5072042;28;20056;-63
2023/06/11 06:44:38;;;;;;;4.97;3.60;;;;;;;;;;5072254;28;20048;-63
2023/06/11 06:47:07;;;;;;;5.60;3.83;;;;;;;;;;5071919;28;20105;-64
2023/06/11 06:49:36;;;;;;;5.90;3.35;;;;;;;;;;5072726;28;20102;-63
2023/06/11 06:52:04;;;;;;;5.47;3.40;;;;;;;;;;5072668;28;20132;-64
2023/06/11 06:54:33;;;;;;;5.20;3.50;;;;;;;;;;5072041;28;20097;-65
2023/06/11 06:57:01;;;;;;;5.43;2.97;;;;;;;;;;5072468;28;20083;-64
2023/06/11 06:59:33;;;;;;;9.07;4.47;;;;;;;;;;5071992;28;20088;-62
2023/06/11 07:02:01;;;;;;;6.65;4.05;;;;;;;;;;5064756;28;20099;-63
2023/06/11 07:04:30;;;;;;;8.45;4.03;;;;;;;;;;5090556;28;20644;-63
2023/06/11 07:06:58;;;;;;;6.45;3.38;;;;;;;;;;5079766;28;20044;-65
2023/06/11 07:09:26;;;;;;;5.57;3.50;;;;;;;;;;5092197;28;20400;-64
2023/06/11 07:11:55;;;;;;;6.15;3.53;;;;;;;;;;5092380;28;20060;-64
2023/06/11 07:14:23;;;;;;;6.63;3.42;;;;;;;;;;5092160;28;20080;-63
2023/06/11 07:16:53;;;;;;;6.70;3.35;;;;;;;;;;5090218;28;20096;-62
2023/06/11 07:19:21;;;;;;;6.55;3.70;;;;;;;;;;5092174;28;20550;-62
2023/06/11 07:21:49;;;;;;;6.25;3.20;;;;;;;;;;5092565;28;20060;-63
2023/06/11 07:24:18;;;;;;;7.85;3.83;;;;;;;;;;5091695;28;20040;-64
2023/06/11 07:26:46;;;;;;;5.88;3.45;;;;;;;;;;5091487;28;20048;-62
2023/06/11 07:29:15;;;;;;;5.18;3.53;;;;;;;;;;5092058;28;20113;-63
2023/06/11 07:31:43;;;;;;;5.78;4.03;;;;;;;;;;5091808;28;20500;-65
2023/06/11 07:34:15;;;;;;;5.60;3.25;;;;;;;;;;5091465;28;20036;-63
2023/06/11 07:36:43;;;;;;;8.95;3.53;;;;;;;;;;5091293;28;20052;-63
2023/06/11 07:39:11;;;;;;;6.18;3.30;;;;;;;;;;5091866;28;20048;-63
2023/06/11 07:41:40;;;;;;;4.95;3.30;;;;;;;;;;5092146;28;20512;-63
2023/06/11 07:44:08;;;;;;;4.40;2.97;;;;;;;;;;5091473;28;20497;-63
2023/06/11 07:46:36;;;;;;;5.03;2.80;;;;;;;;;;5090574;28;20101;-64
2023/06/11 07:49:05;;;;;;;5.32;3.03;;;;;;;;;;5077910;28;20106;-63
2023/06/11 07:51:35;;;;;;;4.70;3.05;;;;;;;;;;5087928;28;20048;-64
2023/06/11 07:54:04;;;;;;;6.82;3.33;;;;;;;;;;5090551;28;20044;-64
2023/06/11 07:56:33;;;;;;;5.30;3.38;;;;;;;;;;5091362;28;20048;-64
2023/06/11 07:59:01;;;;;;;4.38;3.08;;;;;;;;;;5091164;28;20121;-65
2023/06/11 08:01:29;;;;;;;4.70;3.08;;;;;;;;;;5090900;28;20495;-64
2023/06/11 08:03:58;;;;;;;8.70;3.28;;;;;;;;;;5091219;28;20048;-62
2023/06/11 08:06:26;;;;;;;6.53;3.15;;;;;;;;;;5090768;28;20083;-63
2023/06/11 08:08:56;;;;;;;3.78;2.72;;;;;;;;;;5091820;28;20052;-64
2023/06/11 08:11:25;;;;;;;3.83;2.70;;;;;;;;;;5091488;28;20558;-63
2023/06/11 08:13:53;;;;;;;3.95;3.03;;;;;;;;;;5091418;28;20113;-63
2023/06/11 08:16:22;;;;;;;5.60;3.13;;;;;;;;;;5090716;28;20070;-64
2023/06/11 08:18:50;;;;;;;3.90;3.03;;;;;;;;;;5091632;28;20105;-63
2023/06/11 08:21:19;;;;;;;5.55;2.90;;;;;;;;;;5091003;28;20044;-63
2023/06/11 08:23:48;;;;;;;3.97;2.92;;;;;;;;;;5090975;28;20040;-65
2023/06/11 08:26:19;;;;;;;4.40;3.15;;;;;;;;;;5090282;28;20048;-64
2023/06/11 08:28:48;;;;;;;5.18;3.20;;;;;;;;;;5090634;28;20488;-65
2023/06/11 08:31:16;;;;;;;5.35;2.85;;;;;;;;;;5090558;28;20090;-63
2023/06/11 08:33:44;;;;;;;4.90;2.67;;;;;;;;;;5090896;28;20121;-63
2023/06/11 08:36:13;;;;;;;4.53;2.50;;;;;;;;;;5090090;28;20052;-64
2023/06/11 08:38:41;;;;;;;3.22;2.67;;;;;;;;;;5090705;28;20479;-63
2023/06/11 08:41:10;;;;;;;3.97;2.78;;;;;;;;;;5089974;28;20047;-64
2023/06/11 08:43:39;;;;;;;4.82;3.03;;;;;;;;;;5090655;28;20048;-64
2023/06/11 08:46:12;;;;;;;4.82;2.88;;;;;;;;;;5089920;28;20047;-63
2023/06/11 08:48:42;;;;;;;4.57;2.80;;;;;;;;;;5090464;28;20067;-65
2023/06/11 08:51:11;;;;;;;6.50;2.88;;;;;;;;;;5090012;28;20378;-63
2023/06/11 08:53:40;;;;;;;2.85;2.08;;;;;;;;;;5090438;28;20109;-63
2023/06/11 08:56:08;;;;;;;7.35;2.30;;;;;;;;;;5090272;28;20048;-62
2023/06/11 08:58:37;;;;;;;7.03;2.50;;;;;;;;;;5090412;28;20090;-64
2023/06/11 09:01:11;;;;;;;3.15;2.25;;;;;;;;;;5090344;28;20048;-64
2023/06/11 09:03:39;;;;;;;3.60;2.53;;;;;;;;;;5089888;28;20131;-64
2023/06/11 09:06:08;;;;;;;2.65;2.15;;;;;;;;;;5089597;28;20044;-63
2023/06/11 09:08:36;;;;;;;2.97;2.10;;;;;;;;;;5090428;28;20052;-64
2023/06/11 09:11:06;;;;;;;4.97;2.42;;;;;;;;;;5090257;28;20054;-65
2023/06/11 09:13:34;;;;;;;5.45;2.58;;;;;;;;;;5089872;28;20106;-67
2023/06/11 09:16:03;;;;;;;3.85;2.22;;;;;;;;;;5089802;28;20076;-63
2023/06/11 09:18:32;;;;;;;4.43;2.00;;;;;;;;;;5090223;28;20487;-64
2023/06/11 09:21:01;;;;;;;3.30;2.20;;;;;;;;;;5090073;28;20044;-64
2023/06/11 09:23:31;;;;;;;3.10;2.40;;;;;;;;;;5090256;28;20040;-66
2023/06/11 09:26:00;;;;;;;4.82;2.65;;;;;;;;;;5089237;28;20052;-68
2023/06/11 09:28:31;;;;;;;4.03;2.50;;;;;;;;;;5089295;28;20044;-63
2023/06/11 09:31:01;;;;;;;4.90;2.67;;;;;;;;;;5089557;28;20048;-64
2023/06/11 09:33:30;;;;;;;3.92;2.20;;;;;;;;;;5090125;28;20040;-64
2023/06/11 09:36:00;;;;;;;4.57;2.35;;;;;;;;;;5089731;28;20052;-65
2023/06/11 09:38:28;;;;;;;3.45;2.17;;;;;;;;;;5089884;28;20072;-64
2023/06/11 09:40:58;;;;;;;3.53;2.40;;;;;;;;;;5089321;28;20048;-66
2023/06/11 09:43:26;;;;;;;3.13;2.35;;;;;;;;;;5087020;28;20105;-65
2023/06/11 09:45:55;;;;;;;4.43;2.50;;;;;;;;;;5089582;28;20120;-66
2023/06/11 09:48:24;;;;;;;3.83;2.38;;;;;;;;;;5090520;28;20048;-67
2023/06/11 09:50:53;;;;;;;3.95;2.30;;;;;;;;;;5089388;28;20048;-67
2023/06/11 09:53:24;;;;;;;3.05;2.17;;;;;;;;;;5089629;28;20080;-65
2023/06/11 09:55:53;;;;;;;5.05;2.20;;;;;;;;;;5089381;28;20106;-65
2023/06/11 09:58:38;;;;;;;3.47;2.40;;;;;;;;;;5090158;28;20052;-64
2023/06/11 10:01:07;;;;;;;5.82;2.30;;;;;;;;;;5089355;28;20051;-64
2023/06/11 10:03:35;;;;;;;4.28;2.35;;;;;;;;;;5089670;28;20632;-65
2023/06/11 10:06:06;;;;;;;3.63;2.60;;;;;;;;;;5089449;28;20060;-68
2023/06/11 10:08:36;;;;;;;2.22;1.95;;;;;;;;;;5076651;28;20044;-65
2023/06/11 10:11:05;;;;;;;3.42;1.92;;;;;;;;;;5089341;28;20078;-64
2023/06/11 10:13:34;;;;;;;2.45;1.90;;;;;;;;;;5089712;28;20543;-64
2023/06/11 10:16:02;;;;;;;2.42;2.17;;;;;;;;;;5088939;28;20562;-65
2023/06/11 10:18:31;;;;;;;4.90;1.98;;;;;;;;;;5092580;28;20052;-64
2023/06/11 10:21:00;;;;;;;3.72;1.85;;;;;;;;;;5093533;28;20090;-64
2023/06/11 10:23:37;;;;;;;4.10;1.95;;;;;;;;;;5093057;28;20447;-63
2023/06/11 10:26:06;;;;;;;3.67;2.10;;;;;;;;;;5092431;28;20051;-65
2023/06/11 10:28:38;;;;;;;2.88;1.95;;;;;;;;;;5093401;28;20386;-65
2023/06/11 10:31:06;;;;;;;3.10;1.90;;;;;;;;;;5093010;28;20087;-64
2023/06/11 10:33:38;;;;;;;1.80;1.48;;;;;;;;;;5093424;28;20492;-66
2023/06/11 10:36:07;;;;;;;2.60;1.75;;;;;;;;;;5079320;28;20539;-66
2023/06/11 10:38:39;;;;;;;1.85;1.60;;;;;;;;;;5092846;28;20048;-66
2023/06/11 10:41:07;;;;;;;2.20;1.60;;;;;;;;;;5092872;28;20044;-66
2023/06/11 10:43:37;;;;;;;2.38;1.67;;;;;;;;;;5092123;28;20148;-64
2023/06/11 10:46:11;;;;;;;2.58;1.70;;;;;;;;;;5092682;28;20052;-64
2023/06/11 10:48:40;;;;;;;;;;;;;;;;;;5093168;28;20550;-65
2023/06/11 10:51:14;;;;;;;2.10;1.55;;;;;;;;;;5092916;28;19951;-66
2023/06/11 10:53:44;;;;;;;2.10;1.35;;;;;;;;;;5092356;28;20048;-64
2023/06/11 10:56:14;;;;;;;2.58;1.58;;;;;;;;;;5092724;28;20055;-65
2023/06/11 10:58:42;;;;;;;1.65;1.23;;;;;;;;;;5092575;28;20048;-64
2023/06/11 11:01:11;;;;;;;3.42;1.63;;;;;;;;;;5092626;28;20093;-67
2023/06/11 11:03:39;;;;;;;2.90;1.70;;;;;;;;;;5079261;28;20332;-65
2023/06/11 11:06:08;;;;;;;2.17;1.80;;;;;;;;;;5092165;28;20109;-65
2023/06/11 11:08:37;;;;;;;2.65;1.95;;;;;;;;;;5093283;28;20493;-64
2023/06/11 11:11:07;;;;;;;2.25;1.50;;;;;;;;;;5092650;28;20072;-65
2023/06/11 11:13:36;;;;;;;2.25;1.63;;;;;;;;;;5092303;28;20064;-65
2023/06/11 11:16:04;;;;;;;2.25;1.67;;;;;;;;;;5091814;28;20117;-66
2023/06/11 11:18:34;;;;;;;2.53;1.60;;;;;;;;;;5092021;28;20040;-65
2023/06/11 11:21:03;;;;;;;2.38;1.98;;;;;;;;;;5092383;28;20063;-64
2023/06/11 11:23:32;;;;;;;4.60;1.70;;;;;;;;;;5092729;28;20040;-65
2023/06/11 11:26:01;;;;;;;2.33;1.65;;;;;;;;;;5091659;28;20044;-64
2023/06/11 11:28:34;;;;;;;2.47;1.88;;;;;;;;;;5091960;28;20168;-65
2023/06/11 11:31:03;;;;;;;3.85;2.10;;;;;;;;;;5091800;28;20105;-64
2023/06/11 11:33:31;;;;;;;3.70;2.00;;;;;;;;;;5088758;28;20393;-64
2023/06/11 11:36:00;;;;;;;4.18;1.90;;;;;;;;;;5090477;28;20447;-64
2023/06/11 11:38:34;;;;;;;3.15;2.13;;;;;;;;;;5091887;28;20131;-66
2023/06/11 11:41:03;;;;;;;2.97;1.90;;;;;;;;;;5091026;28;20447;-67
2023/06/11 11:43:38;;;;;;;2.65;1.65;;;;;;;;;;5091489;28;20594;-65
2023/06/11 11:46:16;;;;;;;3.03;2.05;;;;;;;;;;5091614;28;20048;-65
2023/06/11 11:48:45;;;;;;;2.20;1.60;;;;;;;;;;5091244;28;20566;-65
2023/06/11 11:51:15;;;;;;;2.83;1.98;;;;;;;;;;5091517;28;20481;-65
2023/06/11 11:53:44;;;;;;;4.20;1.85;;;;;;;;;;5091319;28;20071;-65
2023/06/11 11:56:12;;;;;;;2.15;1.77;;;;;;;;;;5091124;28;20539;-64
2023/06/11 11:58:43;;;;;;;4.00;2.00;;;;;;;;;;5091352;28;20084;-67
2023/06/11 12:01:21;;;;;;;2.42;1.95;;;;;;;;;;5091749;28;20097;-66
2023/06/11 12:03:58;;;;;;;4.03;2.10;;;;;;;;;;5064914;28;20053;-66
2023/06/11 12:06:26;;;;;;;2.53;1.92;;;;;;;;;;5070544;28;20126;-66
2023/06/11 12:08:55;;;;;;;3.63;2.20;;;;;;;;;;5071254;28;20068;-65
2023/06/11 12:11:23;;;;;;;2.17;1.58;;;;;;;;;;5071150;28;20095;-65
2023/06/11 12:13:53;;;;;;;2.45;1.65;;;;;;;;;;5070688;28;20480;-65
2023/06/11 12:16:23;;;;;;;2.30;1.75;;;;;;;;;;5070284;28;20055;-65
2023/06/11 12:18:53;;;;;;;2.85;1.80;;;;;;;;;;5070737;28;20568;-67
2023/06/11 12:21:32;;;;;;;2.38;1.95;;;;;;;;;;5070799;28;20476;-66
2023/06/11 12:24:00;;;;;;;2.92;1.73;;;;;;;;;;5070775;28;20110;-67
2023/06/11 12:26:28;;;;;;;3.65;2.00;;;;;;;;;;5069850;28;20568;-68
2023/06/11 12:29:00;;;;;;;4.05;1.83;;;;;;;;;;5070304;28;20079;-66
2023/06/11 12:31:28;;;;;;;2.63;2.20;;;;;;;;;;5070572;28;20079;-66
2023/06/11 12:33:57;;;;;;;2.63;1.75;;;;;;;;;;5070581;28;20048;-66
2023/06/11 12:36:25;;;;;;;2.88;2.10;;;;;;;;;;5070127;28;20048;-64
2023/06/11 12:38:54;;;;;;;2.47;1.80;;;;;;;;;;5070288;28;20371;-64
2023/06/11 12:41:22;;;;;;;3.38;1.85;;;;;;;;;;5069868;28;20052;-65
2023/06/11 12:43:50;;;;;;;3.03;1.65;;;;;;;;;;5070286;28;20048;-64
2023/06/11 12:46:20;;;;;;;2.47;1.75;;;;;;;;;;5070177;28;20438;-65
2023/06/11 12:48:49;;;;;;;2.45;1.95;;;;;;;;;;5070574;28;20049;-67
2023/06/11 12:51:17;;;;;;;3.50;1.73;;;;;;;;;;5070082;28;20079;-66
2023/06/11 12:53:45;;;;;;;4.05;1.88;;;;;;;;;;5070037;28;20052;-66
2023/06/11 12:56:16;;;;;;;2.38;1.60;;;;;;;;;;5069754;28;20048;-67
2023/06/11 12:58:46;;;;;;;2.90;1.88;;;;;;;;;;5070526;28;20460;-65
2023/06/11 13:01:14;;;;;;;2.55;2.08;;;;;;;;;;5070869;28;20041;-66
2023/06/11 13:03:44;;;;;;;2.80;1.98;;;;;;;;;;5069613;28;20087;-67
2023/06/11 13:06:12;;;;;;;5.78;1.92;;;;;;;;;;5069582;28;20080;-66
2023/06/11 13:08:41;;;;;;;2.95;2.20;;;;;;;;;;5070339;28;20442;-66
2023/06/11 13:11:10;;;;;;;2.95;2.22;;;;;;;;;;5070257;28;20083;-67
2023/06/11 13:13:38;;;;;;;3.72;2.05;;;;;;;;;;5069668;28;20409;-66
2023/06/11 13:16:07;;;;;;;2.20;1.60;;;;;;;;;;5069543;28;20390;-65
2023/06/11 13:18:36;;;;;;;2.78;2.10;;;;;;;;;;5069938;28;20131;-65
2023/06/11 13:21:06;;;;;;;2.38;1.70;;;;;;;;;;5070655;28;20060;-67
2023/06/11 13:23:34;;;;;;;2.88;1.80;;;;;;;;;;5070138;28;20083;-66
2023/06/11 13:26:03;;;;;;;3.45;1.88;;;;;;;;;;5069574;28;20416;-65
2023/06/11 13:28:31;;;;;;;2.60;1.80;;;;;;;;;;5069717;28;20048;-65
2023/06/11 13:31:00;;;;;;;2.00;1.80;;;;;;;;;;5070252;28;20048;-65
2023/06/11 13:33:29;;;;;;;2.17;1.60;;;;;;;;;;5069669;28;20057;-65
2023/06/11 13:35:57;;;;;;;2.65;1.92;;;;;;;;;;5069496;28;20048;-64
2023/06/11 13:38:27;;;;;;;2.17;1.50;;;;;;;;;;5068375;28;20052;-64
2023/06/11 13:40:55;;;;;;;2.20;1.73;;;;;;;;;;5066495;28;20460;-66
2023/06/11 13:43:24;;;;;;;3.53;1.60;;;;;;;;;;5063294;28;20557;-65
2023/06/11 13:45:53;;;;;;;2.97;1.88;;;;;;;;;;5062823;28;20064;-67
2023/06/11 13:48:22;;;;;;;2.65;1.83;;;;;;;;;;5061039;28;20048;-67
2023/06/11 13:50:51;;;;;;;4.03;1.80;;;;;;;;;;5061196;28;20044;-66
2023/06/11 13:53:20;;;;;;;3.05;1.70;;;;;;;;;;5061429;28;20056;-66
2023/06/11 13:55:50;;;;;;;3.33;1.92;;;;;;;;;;5064636;28;20048;-67
2023/06/11 13:58:20;;;;;;;2.90;1.70;;;;;;;;;;5070136;28;20048;-67
2023/06/11 14:00:49;;;;;;;3.30;2.00;;;;;;;;;;5072008;28;20130;-64
2023/06/11 14:03:21;;;;;;;1.88;1.50;;;;;;;;;;5069072;28;20068;-66
2023/06/11 14:05:50;;;;;;;3.33;1.60;;;;;;;;;;5069700;28;20041;-63
2023/06/11 14:08:18;;;;;;;2.55;1.48;;;;;;;;;;5067302;28;20056;-64
2023/06/11 14:10:47;;;;;;;2.22;1.80;;;;;;;;;;5063061;28;20045;-64
2023/06/11 14:13:17;;;;;;;2.22;1.70;;;;;;;;;;5067273;28;20048;-64
2023/06/11 14:15:45;;;;;;;2.58;1.60;;;;;;;;;;5072419;28;20040;-63
2023/06/11 14:18:13;;;;;;;3.05;1.45;;;;;;;;;;5072787;28;20132;-63
2023/06/11 14:20:42;;;;;;;2.47;1.50;;;;;;;;;;5069622;28;20052;-64
2023/06/11 14:23:10;;;;;;;2.97;1.60;;;;;;;;;;5069314;28;20044;-63
2023/06/11 14:25:39;;;;;;;3.67;1.70;;;;;;;;;;5072885;28;20049;-63
2023/06/11 14:28:07;;;;;;;2.13;1.45;;;;;;;;;;5072939;28;20045;-64
2023/06/11 14:30:37;;;;;;;1.92;1.30;;;;;;;;;;5072459;28;20049;-63
2023/06/11 14:33:05;;;;;;;2.70;1.50;;;;;;;;;;5064148;28;20386;-64
2023/06/11 14:35:34;;;;;;;1.95;1.50;;;;;;;;;;5066956;28;20133;-63
2023/06/11 14:38:02;;;;;;;2.50;1.63;;;;;;;;;;5072864;28;20517;-63
2023/06/11 14:40:31;;;;;;;2.58;1.75;;;;;;;;;;5066457;28;20049;-64
2023/06/11 14:43:00;;;;;;;1.67;1.30;;;;;;;;;;5066540;28;20052;-64
2023/06/11 14:45:28;;;;;;;2.05;1.67;;;;;;;;;;5065860;28;20044;-65
2023/06/11 14:47:58;;;;;;;2.28;1.77;;;;;;;;;;5070765;28;20076;-63
2023/06/11 14:50:26;;;;;;;2.17;1.60;;;;;;;;;;5065062;28;20041;-64
2023/06/11 14:52:55;;;;;;;2.67;1.80;;;;;;;;;;5069347;28;20049;-64
2023/06/11 14:55:23;;;;;;;2.22;1.60;;;;;;;;;;5070626;28;20048;-65